Time;durP1;ratioP1;P1;durP2;ratioP2;P2;SDS_P1;SDS_P2;PMS_P1;PMS_P2;Temp;Humidity;BMP_temperature;BMP_pressure;BME280_temperature;BME280_humidity;BME280_pressure;Samples;Min_cycle;Max_cycle;Signal;HPM_P1;HPM_P2
2023/07/19 00:01:35;;;;;;;;;13.00;12.00;;;;;23.92;46.00;100708.59;110261;1250;22230;-73
2023/07/19 00:04:01;;;;;;;;;13.00;13.00;;;;;23.93;45.95;100709.09;110262;1257;19747;-73
2023/07/19 00:06:27;;;;;;;;;12.50;12.00;;;;;23.92;46.18;100707.06;110235;1250;20073;-73
2023/07/19 00:08:55;;;;;;;;;9.67;9.67;;;;;23.91;46.10;100709.37;110270;1250;22341;-73
2023/07/19 00:11:21;;;;;;;;;10.00;10.00;;;;;23.91;46.01;100707.10;110269;1250;20017;-73
2023/07/19 00:13:47;;;;;;;;;12.00;10.00;;;;;23.90;46.00;100700.92;110219;1264;20174;-71
2023/07/19 00:16:13;;;;;;;;;14.00;13.00;;;;;23.89;45.82;100696.50;110235;1250;20879;-74
2023/07/19 00:18:39;;;;;;;;;16.00;13.00;;;;;23.87;45.96;100695.02;110231;1250;20245;-73
2023/07/19 00:21:05;;;;;;;;;12.50;10.00;;;;;23.86;45.88;100691.73;110246;1265;21023;-73
2023/07/19 00:23:31;;;;;;;;;16.00;12.00;;;;;23.85;45.94;100689.83;110180;1250;20651;-74
2023/07/19 00:25:57;;;;;;;;;12.00;10.00;;;;;23.84;45.96;100692.57;110213;1257;20250;-72
2023/07/19 00:28:23;;;;;;;;;13.00;13.00;;;;;23.82;46.14;100685.55;110139;1250;20100;-73
2023/07/19 00:30:49;;;;;;;;;12.00;10.00;;;;;23.81;46.31;100682.92;110143;1250;20730;-72
2023/07/19 00:33:15;;;;;;;;;13.00;12.50;;;;;23.81;46.41;100682.17;110174;1250;19978;-74
2023/07/19 00:35:41;;;;;;;;;9.00;9.00;;;;;23.80;46.31;100676.61;110262;1250;20239;-73
2023/07/19 00:38:07;;;;;;;;;10.00;9.00;;;;;23.80;46.53;100673.16;110251;1265;19477;-74
2023/07/19 00:40:33;;;;;;;;;9.50;9.50;;;;;23.79;46.48;100668.94;110279;1250;21794;-74
2023/07/19 00:42:59;;;;;;;;;10.00;9.00;;;;;23.79;46.70;100670.61;110268;1250;21734;-73
2023/07/19 00:45:26;;;;;;;;;14.00;12.00;;;;;23.79;46.60;100670.83;110273;1250;20816;-74
2023/07/19 00:47:52;;;;;;;;;9.00;9.00;;;;;23.76;46.73;100671.35;110248;1257;18593;-72
2023/07/19 00:50:18;;;;;;;;;10.00;10.00;;;;;23.75;46.87;100667.64;110259;1265;18420;-72
2023/07/19 00:52:44;;;;;;;;;9.00;9.00;;;;;23.75;46.84;100667.17;110275;1250;20747;-74
2023/07/19 00:55:10;;;;;;;;;12.00;12.00;;;;;23.74;46.78;100665.95;110282;1265;18939;-73
2023/07/19 00:57:36;;;;;;;;;12.00;10.00;;;;;23.71;46.85;100660.41;110258;1250;20110;-73
2023/07/19 01:00:03;;;;;;;;;9.00;9.00;;;;;23.70;47.02;100659.43;110265;1250;20675;-74
2023/07/19 01:02:29;;;;;;;;;10.00;10.00;;;;;23.69;46.74;100661.91;110253;1251;22229;-72
2023/07/19 01:04:55;;;;;;;;;10.00;10.00;;;;;23.70;47.09;100657.48;110235;1264;18803;-73
2023/07/19 01:07:21;;;;;;;;;12.00;10.00;;;;;23.70;46.92;100653.70;110164;1264;19468;-72
2023/07/19 01:09:48;;;;;;;;;10.00;10.00;;;;;23.68;46.95;100649.48;110220;1264;18708;-72
2023/07/19 01:12:14;;;;;;;;;10.50;9.00;;;;;23.67;46.99;100649.15;110271;1265;21252;-74
2023/07/19 01:14:40;;;;;;;;;10.00;10.00;;;;;23.66;46.91;100647.63;110244;1265;20376;-73
2023/07/19 01:17:07;;;;;;;;;13.00;12.00;;;;;23.64;46.84;100643.14;110263;1250;20106;-73
2023/07/19 01:19:33;;;;;;;;;8.50;8.50;;;;;23.63;47.10;100643.37;110275;1250;20082;-74
2023/07/19 01:21:59;;;;;;;;;10.50;10.00;;;;;23.64;47.07;100643.44;110273;1265;19352;-73
2023/07/19 01:24:25;;;;;;;;;15.00;12.00;;;;;23.61;46.99;100639.61;110320;1265;20971;-74
2023/07/19 01:26:51;;;;;;;;;9.67;9.67;;;;;23.58;47.07;100636.14;110270;1265;20370;-74
2023/07/19 01:29:17;;;;;;;;;9.00;9.00;;;;;23.58;47.21;100637.52;110239;1264;22658;-73
2023/07/19 01:31:44;;;;;;;;;9.00;9.00;;;;;23.57;47.26;100640.39;110251;1250;19751;-73
2023/07/19 01:34:10;;;;;;;;;12.00;11.50;;;;;23.58;47.35;100642.13;110247;1265;18765;-73
2023/07/19 01:36:36;;;;;;;;;9.00;9.00;;;;;23.58;47.46;100639.69;110258;1257;20874;-73
2023/07/19 01:39:02;;;;;;;;;11.50;10.00;;;;;23.58;47.37;100634.63;110263;1265;18591;-73
2023/07/19 01:41:28;;;;;;;;;8.00;8.00;;;;;23.56;47.35;100634.08;110272;1250;20160;-73
2023/07/19 01:43:54;;;;;;;;;10.00;10.00;;;;;23.54;47.33;100629.77;110230;1250;20669;-73
2023/07/19 01:46:20;;;;;;;;;9.67;9.00;;;;;23.52;47.41;100629.20;110266;1250;19885;-73
2023/07/19 01:48:46;;;;;;;;;9.00;8.00;;;;;23.50;47.52;100625.95;110226;1265;18853;-74
2023/07/19 01:51:12;;;;;;;;;10.00;8.00;;;;;23.49;47.28;100624.52;110271;1250;20832;-74
2023/07/19 01:53:38;;;;;;;;;8.00;8.00;;;;;23.47;47.24;100624.90;110257;1250;19771;-73
2023/07/19 01:56:04;;;;;;;;;10.00;10.00;;;;;23.46;47.27;100628.09;110247;1250;20048;-74
2023/07/19 01:58:30;;;;;;;;;9.50;9.00;;;;;23.44;47.48;100626.61;110226;1250;21455;-74
2023/07/19 02:00:56;;;;;;;;;10.67;8.00;;;;;23.44;47.53;100623.02;110242;1265;18643;-73
2023/07/19 02:03:22;;;;;;;;;10.00;9.00;;;;;23.43;47.78;100624.63;110254;1250;20090;-72
2023/07/19 02:05:48;;;;;;;;;9.00;9.00;;;;;23.44;47.65;100625.69;110162;1249;19692;-70
2023/07/19 02:08:14;;;;;;;;;9.00;9.00;;;;;23.43;47.79;100620.80;110162;1250;20042;-71
2023/07/19 02:10:40;;;;;;;;;11.50;10.00;;;;;23.43;47.72;100616.58;110152;1265;21528;-71
2023/07/19 02:13:06;;;;;;;;;8.00;8.00;;;;;23.41;47.55;100619.22;110145;1251;21916;-72
2023/07/19 02:15:32;;;;;;;;;13.00;12.67;;;;;23.39;47.54;100620.27;110151;1250;18804;-72
2023/07/19 02:17:58;;;;;;;;;14.33;13.00;;;;;23.32;47.64;100613.20;110104;1250;20101;-72
2023/07/19 02:20:24;;;;;;;;;12.33;10.67;;;;;23.26;47.69;100613.91;110181;1249;20884;-75
2023/07/19 02:22:50;;;;;;;;;10.50;9.00;;;;;23.27;47.49;100617.63;110235;1257;22579;-74
2023/07/19 02:25:16;;;;;;;;;10.00;10.00;;;;;23.28;47.44;100615.45;110243;1265;18921;-73
2023/07/19 02:27:42;;;;;;;;;12.00;12.00;;;;;23.28;47.51;100612.28;110228;1259;20851;-71
2023/07/19 02:30:08;;;;;;;;;11.00;10.00;;;;;23.25;47.72;100612.09;110213;1251;20012;-72
2023/07/19 02:32:34;;;;;;;;;10.33;10.33;;;;;23.25;47.71;100609.40;110173;1251;20119;-72
2023/07/19 02:35:01;;;;;;;;;12.00;12.00;;;;;23.20;47.66;100600.40;110155;1250;19414;-72
2023/07/19 02:37:27;;;;;;;;;12.00;11.00;;;;;23.15;47.46;100600.94;110200;1265;18794;-72
2023/07/19 02:39:53;;;;;;;;;13.00;13.00;;;;;23.11;47.41;100601.39;110281;1265;20374;-74
2023/07/19 02:42:19;;;;;;;;;13.00;13.00;;;;;23.10;47.43;100603.95;110274;1265;19377;-73
2023/07/19 02:44:45;;;;;;;;;12.00;12.00;;;;;23.07;47.41;100600.13;110243;1250;21973;-73
2023/07/19 02:47:12;;;;;;;;;14.33;13.00;;;;;23.07;47.23;100599.73;110268;1251;20494;-74
2023/07/19 02:49:38;;;;;;;;;11.00;11.00;;;;;23.09;47.33;100598.95;110246;1251;20770;-73
2023/07/19 02:52:04;;;;;;;;;14.50;14.00;;;;;23.10;47.22;100594.61;110211;1250;19751;-75
2023/07/19 02:54:30;;;;;;;;;13.00;13.00;;;;;23.08;47.26;100594.11;110260;1265;22242;-73
2023/07/19 02:56:57;;;;;;;;;13.00;12.00;;;;;23.07;47.20;100594.48;110284;1251;21012;-73
2023/07/19 02:59:23;;;;;;;;;11.00;11.00;;;;;23.03;47.21;100594.23;110257;1265;18657;-73
2023/07/19 03:01:49;;;;;;;;;12.00;11.50;;;;;22.99;47.27;100594.86;110237;1250;21326;-72
2023/07/19 03:04:15;;;;;;;;;15.00;15.00;;;;;22.97;47.35;100599.05;110256;1250;22409;-74
2023/07/19 03:06:41;;;;;;;;;15.00;13.00;;;;;22.93;47.41;100591.55;110249;1265;18664;-74
2023/07/19 03:09:07;;;;;;;;;12.00;12.00;;;;;22.92;47.42;100592.17;110172;1250;23145;-73
2023/07/19 03:11:33;;;;;;;;;12.00;12.00;;;;;22.92;47.24;100588.14;110183;1265;20571;-73
2023/07/19 03:13:59;;;;;;;;;13.00;12.00;;;;;22.90;47.35;100586.45;110252;1265;21338;-73
2023/07/19 03:16:25;;;;;;;;;12.00;12.00;;;;;22.87;47.16;100579.52;110286;1250;18857;-74
2023/07/19 03:18:51;;;;;;;;;12.00;11.00;;;;;22.86;47.19;100577.07;110260;1250;20863;-75
2023/07/19 03:21:20;;;;;;;;;12.00;11.00;;;;;22.85;47.23;100577.33;110270;1264;20033;-74
2023/07/19 03:23:46;;;;;;;;;13.00;13.00;;;;;22.80;47.30;100577.68;110244;1265;22330;-74
2023/07/19 03:26:12;;;;;;;;;12.00;12.00;;;;;22.75;47.36;100579.80;110250;1265;19412;-74
2023/07/19 03:28:38;;;;;;;;;11.00;11.00;;;;;22.74;47.53;100573.12;110277;1265;18619;-74
2023/07/19 03:31:04;;;;;;;;;;;;;;;22.75;47.42;100572.33;110250;1250;22880;-73
2023/07/19 03:33:30;;;;;;;;;11.50;11.00;;;;;22.77;47.30;100575.98;110253;1250;22957;-74
2023/07/19 03:35:56;;;;;;;;;17.33;15.33;;;;;22.77;47.28;100570.96;110248;1265;18806;-73
2023/07/19 03:38:22;;;;;;;;;12.00;12.00;;;;;22.73;47.11;100571.52;110258;1265;20013;-73
2023/07/19 03:40:48;;;;;;;;;12.00;11.50;;;;;22.72;47.14;100571.05;110237;1250;20789;-73
2023/07/19 03:43:14;;;;;;;;;16.00;15.00;;;;;22.73;47.12;100575.55;110121;1265;19808;-73
2023/07/19 03:45:40;;;;;;;;;14.33;12.67;;;;;22.72;46.96;100576.54;110098;1250;21801;-71
2023/07/19 03:48:06;;;;;;;;;14.50;11.50;;;;;22.72;46.85;100580.84;110111;1265;20738;-72
2023/07/19 03:50:32;;;;;;;;;12.00;12.00;;;;;22.71;47.04;100573.41;110240;1250;20483;-74
2023/07/19 03:52:58;;;;;;;;;15.00;12.50;;;;;22.71;46.89;100575.52;110261;1250;20162;-74
2023/07/19 03:55:24;;;;;;;;;14.67;12.00;;;;;22.69;46.96;100571.80;110239;1250;20765;-74
2023/07/19 03:57:50;;;;;;;;;16.00;14.00;;;;;22.68;47.06;100568.31;110243;1251;18598;-74
2023/07/19 04:00:16;;;;;;;;;11.67;11.00;;;;;22.73;46.93;100569.13;110225;1257;21819;-70
2023/07/19 04:02:42;;;;;;;;;13.00;12.00;;;;;22.77;46.95;100567.30;110180;1265;19389;-71
2023/07/19 04:05:08;;;;;;;;;11.00;11.00;;;;;22.79;47.01;100568.73;110187;1265;18783;-71
2023/07/19 04:07:34;;;;;;;;;12.00;12.00;;;;;22.79;47.17;100571.66;110168;1250;20119;-72
2023/07/19 04:10:01;;;;;;;;;16.00;12.00;;;;;22.79;47.20;100574.61;110208;1250;20693;-72
2023/07/19 04:12:27;;;;;;;;;15.00;13.00;;;;;22.79;47.28;100572.52;110273;1265;18762;-72
2023/07/19 04:14:53;;;;;;;;;13.00;12.00;;;;;22.76;47.00;100568.98;110271;1250;20126;-74
2023/07/19 04:17:19;;;;;;;;;13.00;12.00;;;;;22.73;46.94;100567.35;110274;1250;20819;-74
2023/07/19 04:19:45;;;;;;;;;15.50;15.00;;;;;22.72;46.75;100570.20;110293;1265;18612;-74
2023/07/19 04:22:11;;;;;;;;;12.00;11.00;;;;;22.69;46.53;100569.27;110236;1265;21035;-74
2023/07/19 04:24:37;;;;;;;;;11.00;11.00;;;;;22.68;46.39;100568.48;110289;1251;20796;-74
2023/07/19 04:27:03;;;;;;;;;11.50;11.50;;;;;22.68;46.18;100569.95;110257;1265;19984;-73
2023/07/19 04:29:29;;;;;;;;;12.00;12.00;;;;;22.68;46.20;100569.32;110277;1250;20115;-73
2023/07/19 04:31:55;;;;;;;;;13.00;12.50;;;;;22.73;46.28;100570.38;110250;1250;21762;-73
2023/07/19 04:34:21;;;;;;;;;11.50;11.00;;;;;22.74;46.31;100564.38;110278;1250;20029;-74
2023/07/19 04:36:48;;;;;;;;;13.00;13.00;;;;;22.73;46.11;100565.59;110266;1265;18795;-73
2023/07/19 04:39:14;;;;;;;;;12.00;11.50;;;;;22.73;45.99;100560.75;110243;1250;21993;-73
2023/07/19 04:41:40;;;;;;;;;13.00;12.00;;;;;22.72;45.89;100556.84;110269;1257;20177;-73
2023/07/19 04:44:06;;;;;;;;;12.50;11.00;;;;;22.71;46.18;100556.20;110268;1250;22803;-73
2023/07/19 04:46:32;;;;;;;;;18.00;16.00;;;;;22.60;46.00;100551.63;110262;1249;21065;-74
2023/07/19 04:48:58;;;;;;;;;14.00;14.00;;;;;21.84;46.80;100548.92;110255;1250;20183;-74
2023/07/19 04:51:24;;;;;;;;;14.50;14.50;;;;;21.61;47.63;100547.18;110268;1265;18913;-74
2023/07/19 04:53:50;;;;;;;;;16.00;15.00;;;;;21.50;47.71;100544.45;110240;1250;20825;-73
2023/07/19 04:56:16;;;;;;;;;14.00;12.67;;;;;21.46;47.91;100543.04;110290;1265;19927;-74
2023/07/19 04:58:42;;;;;;;;;12.50;12.00;;;;;21.38;48.08;100538.73;110273;1250;20113;-74
2023/07/19 05:01:09;;;;;;;;;16.00;14.50;;;;;21.48;48.15;100537.48;110251;1266;22229;-74
2023/07/19 05:03:35;;;;;;;;;14.50;14.00;;;;;21.57;47.90;100538.48;110276;1250;20143;-74
2023/07/19 05:06:01;;;;;;;;;14.50;14.00;;;;;21.60;48.20;100537.29;110269;1265;18587;-74
2023/07/19 05:08:27;;;;;;;;;16.00;14.50;;;;;21.44;48.50;100529.92;110263;1265;19381;-74
2023/07/19 05:10:53;;;;;;;;;11.00;11.00;;;;;21.55;48.36;100530.84;110266;1250;18810;-73
2023/07/19 05:13:19;;;;;;;;;20.00;17.00;;;;;21.16;48.64;100534.21;110259;1264;20393;-72
2023/07/19 05:15:45;;;;;;;;;14.00;14.00;;;;;21.02;49.43;100539.55;110165;1250;22876;-72
2023/07/19 05:18:11;;;;;;;;;12.00;11.00;;;;;21.36;49.12;100536.16;110239;1250;19973;-73
2023/07/19 05:20:37;;;;;;;;;;;;;;;21.97;48.03;100528.88;110222;1250;22299;-74
2023/07/19 05:23:03;;;;;;;;;12.00;11.00;;;;;22.35;47.35;100525.80;110264;1257;19132;-74
2023/07/19 05:25:29;;;;;;;;;14.33;12.33;;;;;22.59;46.97;100525.14;110269;1250;19424;-74
2023/07/19 05:27:55;;;;;;;;;9.00;9.00;;;;;22.76;46.74;100527.73;110267;1265;18797;-74
2023/07/19 05:30:21;;;;;;;;;11.50;11.00;;;;;22.87;46.64;100526.19;110259;1250;19372;-75
2023/07/19 05:32:47;;;;;;;;;11.00;10.50;;;;;22.94;46.53;100526.40;110246;1250;18462;-74
2023/07/19 05:35:13;;;;;;;;;9.00;9.00;;;;;23.00;46.30;100525.35;110245;1265;20009;-74
2023/07/19 05:37:39;;;;;;;;;8.00;8.00;;;;;23.06;46.17;100525.02;110228;1265;20776;-75
2023/07/19 05:40:06;;;;;;;;;7.00;7.00;;;;;23.11;46.11;100526.58;110253;1251;19891;-74
2023/07/19 05:42:32;;;;;;;;;7.50;7.50;;;;;23.15;46.25;100524.02;110281;1257;18838;-73
2023/07/19 05:44:58;;;;;;;;;7.00;7.00;;;;;23.22;46.16;100527.84;110265;1265;21661;-73
2023/07/19 05:47:24;;;;;;;;;5.00;5.00;;;;;23.28;46.56;100517.75;110200;1250;19651;-74
2023/07/19 05:49:50;;;;;;;;;8.00;8.00;;;;;23.32;46.35;100521.11;110222;1250;21747;-74
2023/07/19 05:52:16;;;;;;;;;5.00;5.00;;;;;23.33;46.58;100516.70;110214;1250;23252;-73
2023/07/19 05:54:42;;;;;;;;;6.00;6.00;;;;;23.37;46.33;100519.92;110251;1257;19506;-73
2023/07/19 05:57:08;;;;;;;;;4.00;4.00;;;;;23.41;46.49;100520.42;110176;1250;20086;-73
2023/07/19 05:59:34;;;;;;;;;5.00;5.00;;;;;23.46;46.28;100520.33;110148;1265;22393;-73
2023/07/19 06:02:00;;;;;;;;;6.00;5.00;;;;;23.49;46.15;100521.61;110258;1250;22243;-74
2023/07/19 06:04:26;;;;;;;;;4.00;4.00;;;;;23.48;46.41;100520.42;110258;1257;18808;-72
2023/07/19 06:06:53;;;;;;;;;5.00;5.00;;;;;23.51;46.28;100516.91;110230;1265;22243;-78
2023/07/19 06:09:19;;;;;;;;;7.00;6.00;;;;;23.52;46.30;100517.79;110249;1265;22422;-76
2023/07/19 06:11:45;;;;;;;;;6.67;6.00;;;;;23.58;46.16;100518.96;110280;1250;22627;-74
2023/07/19 06:14:11;;;;;;;;;4.50;4.50;;;;;23.59;46.27;100518.39;110239;1257;22232;-73
2023/07/19 06:16:39;;;;;;;;;6.00;6.00;;;;;23.61;46.24;100513.41;110259;1250;20301;-75
2023/07/19 06:19:05;;;;;;;;;5.00;5.00;;;;;23.64;46.55;100508.90;110263;1251;20388;-73
2023/07/19 06:21:31;;;;;;;;;4.50;4.50;;;;;23.67;46.63;100508.88;110245;1249;20936;-73
2023/07/19 06:23:57;;;;;;;;;6.00;6.00;;;;;23.68;46.78;100513.30;110255;1250;19693;-72
2023/07/19 06:26:23;;;;;;;;;8.00;8.00;;;;;23.53;47.10;100512.34;110199;1265;95563;-72
2023/07/19 06:28:49;;;;;;;;;11.00;9.00;;;;;23.35;47.45;100508.61;110258;1250;20491;-72
2023/07/19 06:31:15;;;;;;;;;9.00;8.00;;;;;23.29;47.88;100509.64;110256;1265;18407;-74
2023/07/19 06:33:42;;;;;;;;;11.00;9.00;;;;;23.24;48.25;100507.84;110247;1265;18595;-73
2023/07/19 06:36:08;;;;;;;;;9.00;9.00;;;;;23.22;48.62;100509.16;110245;1265;20769;-73
2023/07/19 06:38:36;;;;;;;;;11.00;9.00;;;;;23.24;48.75;100507.62;110232;1250;20153;-74
2023/07/19 06:41:03;;;;;;;;;11.00;9.00;;;;;23.27;48.56;100506.80;110238;1265;22237;-72
2023/07/19 06:43:29;;;;;;;;;12.00;11.50;;;;;23.30;48.87;100508.30;110136;1265;19591;-72
2023/07/19 06:45:55;;;;;;;;;9.00;9.00;;;;;23.32;49.00;100503.56;110135;1265;18675;-72
2023/07/19 06:48:21;;;;;;;;;9.00;9.00;;;;;23.39;48.74;100507.79;110174;1257;22447;-73
2023/07/19 06:50:47;;;;;;;;;11.00;11.00;;;;;23.43;48.56;100505.37;110202;1265;19370;-73
2023/07/19 06:53:13;;;;;;;;;8.00;8.00;;;;;23.44;48.35;100508.75;110246;1265;18367;-74
2023/07/19 06:55:39;;;;;;;;;11.00;11.00;;;;;23.46;48.40;100505.67;110259;1250;20023;-72
2023/07/19 06:58:05;;;;;;;;;11.00;9.00;;;;;23.48;48.34;100507.30;110244;1249;20676;-73
2023/07/19 07:00:31;;;;;;;;;8.00;8.00;;;;;23.49;48.44;100509.19;110264;1265;18664;-72
2023/07/19 07:02:57;;;;;;;;;9.00;9.00;;;;;23.49;48.27;100505.92;110250;1265;19899;-72
2023/07/19 07:05:23;;;;;;;;;11.00;11.00;;;;;23.52;48.22;100505.59;110234;1250;22026;-74
2023/07/19 07:07:49;;;;;;;;;8.00;8.00;;;;;23.55;47.97;100503.90;110260;1250;18443;-72
2023/07/19 07:10:15;;;;;;;;;11.00;9.00;;;;;23.56;47.76;100503.69;110233;1260;19902;-74
2023/07/19 07:12:42;;;;;;;;;6.00;6.00;;;;;23.52;47.71;100504.62;110250;1265;19492;-75
2023/07/19 07:15:08;;;;;;;;;8.00;8.00;;;;;23.47;47.73;100503.29;110262;1250;18575;-75
2023/07/19 07:17:34;;;;;;;;;11.00;8.00;;;;;23.45;47.58;100503.86;110251;1265;22256;-74
2023/07/19 07:20:00;;;;;;;;;8.00;8.00;;;;;23.46;47.69;100503.73;110198;1265;19770;-73
2023/07/19 07:22:26;;;;;;;;;9.00;9.00;;;;;23.45;47.80;100503.08;110215;1265;19531;-72
2023/07/19 07:24:52;;;;;;;;;5.00;5.00;;;;;23.47;47.61;100500.14;110234;1250;21779;-74
2023/07/19 07:27:18;;;;;;;;;6.00;6.00;;;;;23.51;47.63;100502.68;110238;1259;20678;-75
2023/07/19 07:29:44;;;;;;;;;8.00;8.00;;;;;23.53;47.39;100502.23;110219;1265;18745;-72
2023/07/19 07:32:11;;;;;;;;;5.50;5.50;;;;;23.53;47.29;100498.31;110270;1265;22951;-73
2023/07/19 07:34:37;;;;;;;;;6.00;6.00;;;;;23.53;47.18;100497.48;110217;1265;22828;-74
2023/07/19 07:37:03;;;;;;;;;9.67;9.00;;;;;23.54;47.19;100493.56;110115;1257;19963;-74
2023/07/19 07:39:29;;;;;;;;;6.00;6.00;;;;;23.53;46.93;100491.08;110149;1250;20198;-74
2023/07/19 07:41:55;;;;;;;;;8.00;8.00;;;;;23.53;46.95;100483.11;110141;1266;20795;-72
2023/07/19 07:44:22;;;;;;;;;7.00;6.00;;;;;23.52;46.98;100480.20;110253;1265;18506;-76
2023/07/19 07:46:48;;;;;;;;;6.00;6.00;;;;;23.53;46.62;100477.11;110241;1265;18965;-74
2023/07/19 07:49:14;;;;;;;;;8.00;8.00;;;;;23.54;46.46;100474.93;110257;1250;20878;-74
2023/07/19 07:51:40;;;;;;;;;6.00;6.00;;;;;23.56;46.45;100475.41;110253;1250;19645;-75
2023/07/19 07:54:06;;;;;;;;;12.00;8.00;;;;;23.57;46.40;100475.11;110258;1265;18650;-75
2023/07/19 07:56:32;;;;;;;;;5.67;5.67;;;;;23.59;46.42;100471.75;110230;1265;20922;-74
2023/07/19 07:58:58;;;;;;;;;12.00;9.00;;;;;23.60;46.41;100473.83;110260;1264;18797;-74
2023/07/19 08:01:24;;;;;;;;;6.67;6.00;;;;;23.60;46.32;100469.11;110211;1250;18832;-73
2023/07/19 08:03:50;;;;;;;;;8.00;6.00;;;;;23.62;46.14;100464.77;110195;1265;21122;-73
2023/07/19 08:06:16;;;;;;;;;8.00;6.00;;;;;23.64;46.03;100460.02;110189;1257;18508;-73
2023/07/19 08:08:43;;;;;;;;;9.00;6.00;;;;;23.63;45.74;100460.60;110213;1249;20190;-73
2023/07/19 08:11:09;;;;;;;;;6.00;6.00;;;;;23.65;45.61;100452.20;110248;1264;19432;-73
2023/07/19 08:13:35;;;;;;;;;6.00;6.00;;;;;23.66;45.35;100451.91;110231;1250;19950;-73
2023/07/19 08:16:01;;;;;;;;;9.00;8.00;;;;;23.65;45.28;100451.40;110254;1250;20016;-73
2023/07/19 08:18:27;;;;;;;;;8.00;8.00;;;;;23.69;45.21;100450.15;110257;1264;19430;-74
2023/07/19 08:20:54;;;;;;;;;8.00;6.00;;;;;23.71;44.88;100450.50;110263;1250;22169;-74
2023/07/19 08:23:20;;;;;;;;;10.00;8.00;;;;;23.73;44.92;100454.27;110154;1250;20017;-72
2023/07/19 08:25:46;;;;;;;;;6.00;6.00;;;;;23.72;44.94;100452.58;110156;1250;20917;-72
2023/07/19 08:28:12;;;;;;;;;7.00;7.00;;;;;23.73;44.78;100451.40;110166;1257;18733;-72
2023/07/19 08:30:38;;;;;;;;;6.00;6.00;;;;;23.73;44.86;100448.63;110119;1250;18835;-72
2023/07/19 08:33:08;;;;;;;;;6.00;6.00;;;;;23.74;44.95;100444.67;110207;1265;20677;-73
2023/07/19 08:35:34;;;;;;;;;6.00;6.00;;;;;23.74;44.86;100441.60;110245;1265;18497;-73
2023/07/19 08:38:00;;;;;;;;;6.00;5.00;;;;;23.74;44.55;100445.05;110243;1250;18681;-73
2023/07/19 08:40:26;;;;;;;;;6.00;6.00;;;;;23.73;44.19;100438.36;110225;1265;19559;-74
2023/07/19 08:42:52;;;;;;;;;6.00;6.00;;;;;23.76;44.01;100438.15;110278;1265;18502;-75
2023/07/19 08:45:18;;;;;;;;;5.00;5.00;;;;;23.80;43.59;100434.89;110244;1250;23007;-75
2023/07/19 08:47:45;;;;;;;;;6.00;5.00;;;;;23.82;43.43;100437.54;110265;1257;21525;-74
2023/07/19 08:50:11;;;;;;;;;5.00;5.00;;;;;23.86;43.37;100436.02;110241;1266;20995;-73
2023/07/19 08:52:37;;;;;;;;;5.67;5.00;;;;;23.84;43.22;100434.35;110249;1250;20173;-74
2023/07/19 08:55:03;;;;;;;;;5.50;5.50;;;;;23.85;43.30;100434.45;110247;1251;21940;-74
2023/07/19 08:57:29;;;;;;;;;6.00;5.00;;;;;23.86;43.41;100431.88;110235;1250;19605;-74
2023/07/19 08:59:55;;;;;;;;;6.00;6.00;;;;;23.84;43.22;100427.45;110220;1257;19945;-75
2023/07/19 09:02:21;;;;;;;;;6.00;6.00;;;;;23.85;43.44;100422.86;110220;1250;20765;-74
2023/07/19 09:04:47;;;;;;;;;4.00;4.00;;;;;23.90;43.24;100422.46;110177;1265;19524;-72
2023/07/19 09:07:13;;;;;;;;;9.00;6.00;;;;;23.93;43.13;100422.00;110134;1249;20000;-73
2023/07/19 09:09:40;;;;;;;;;6.00;6.00;;;;;23.95;43.16;100420.98;110197;1257;19648;-73
2023/07/19 09:12:07;;;;;;;;;7.00;6.00;;;;;23.95;43.08;100414.01;110256;1265;18310;-72
2023/07/19 09:14:33;;;;;;;;;5.00;5.00;;;;;24.01;42.90;100417.98;110230;1251;22880;-73
2023/07/19 09:16:59;;;;;;;;;8.00;8.00;;;;;24.04;42.79;100419.64;110193;1265;22743;-72
2023/07/19 09:19:25;;;;;;;;;6.00;6.00;;;;;24.06;42.45;100418.13;110170;1250;19688;-72
2023/07/19 09:21:51;;;;;;;;;6.00;6.00;;;;;24.07;42.47;100413.90;110180;1250;18688;-72
2023/07/19 09:24:17;;;;;;;;;6.00;5.50;;;;;24.11;42.31;100407.70;110200;1251;20757;-73
2023/07/19 09:26:43;;;;;;;;;8.00;6.00;;;;;24.20;42.37;100409.27;110221;1257;18384;-73
2023/07/19 09:29:09;;;;;;;;;5.00;5.00;;;;;24.20;42.43;100406.36;110263;1251;20033;-73
2023/07/19 09:31:35;;;;;;;;;8.00;8.00;;;;;24.17;42.45;100403.74;110291;1250;20731;-73
2023/07/19 09:34:01;;;;;;;;;4.50;4.50;;;;;24.21;41.89;100400.73;110324;1251;19691;-73
2023/07/19 09:36:27;;;;;;;;;4.00;4.00;;;;;24.24;41.44;100397.82;110276;1257;18713;-74
2023/07/19 09:38:53;;;;;;;;;4.50;4.50;;;;;24.30;41.23;100397.63;110263;1257;22078;-73
2023/07/19 09:41:20;;;;;;;;;8.00;6.00;;;;;24.38;40.97;100392.50;110272;1265;18307;-72
2023/07/19 09:43:46;;;;;;;;;5.50;5.00;;;;;24.47;40.81;100384.56;110288;1249;22749;-72
2023/07/19 09:46:12;;;;;;;;;4.00;4.00;;;;;24.46;40.82;100383.84;110332;1266;19356;-72
2023/07/19 09:48:38;;;;;;;;;6.00;5.00;;;;;24.47;40.80;100382.36;110305;1265;18454;-74
2023/07/19 09:51:04;;;;;;;;;5.00;5.00;;;;;24.48;40.80;100374.19;110297;1265;18646;-75
2023/07/19 09:53:30;;;;;;;;;5.00;5.00;;;;;24.44;40.66;100371.06;110273;1251;22028;-74
2023/07/19 09:55:56;;;;;;;;;8.00;6.00;;;;;24.41;40.56;100358.96;110297;1265;18334;-73
2023/07/19 09:58:22;;;;;;;;;5.00;5.00;;;;;24.40;40.61;100358.34;110269;1251;19974;-73
2023/07/19 10:00:49;;;;;;;;;5.50;5.50;;;;;24.41;40.74;100351.00;110290;1259;20577;-74
2023/07/19 10:03:15;;;;;;;;;5.00;5.00;;;;;24.45;40.75;100355.86;110277;1265;18572;-74
2023/07/19 10:05:41;;;;;;;;;6.00;5.00;;;;;24.50;40.48;100352.23;110308;1250;21702;-74
2023/07/19 10:08:07;;;;;;;;;5.00;5.00;;;;;24.56;40.44;100347.76;110337;1250;19381;-73
2023/07/19 10:10:33;;;;;;;;;6.00;6.00;;;;;24.55;40.35;100347.20;110351;1251;22165;-74
2023/07/19 10:13:00;;;;;;;;;6.00;6.00;;;;;24.56;40.13;100343.13;110327;1265;22398;-74
2023/07/19 10:15:26;;;;;;;;;6.00;6.00;;;;;24.59;40.06;100339.32;110276;1250;21088;-74
2023/07/19 10:17:52;;;;;;;;;5.50;5.50;;;;;24.54;39.86;100338.02;110321;1250;19695;-74
2023/07/19 10:20:18;;;;;;;;;5.00;5.00;;;;;24.54;39.77;100336.11;110345;1265;19300;-74
2023/07/19 10:22:44;;;;;;;;;8.00;8.00;;;;;24.51;39.43;100331.04;110305;1264;20702;-74
2023/07/19 10:25:10;;;;;;;;;4.00;4.00;;;;;24.47;39.36;100329.86;110349;1264;20207;-74
2023/07/19 10:27:37;;;;;;;;;6.00;5.00;;;;;24.45;39.26;100332.30;110304;1248;18653;-75
2023/07/19 10:30:03;;;;;;;;;5.50;5.00;;;;;24.40;39.20;100329.43;110264;1264;20909;-74
2023/07/19 10:32:29;;;;;;;;;6.00;6.00;;;;;24.37;39.14;100330.45;110277;1264;18518;-73
2023/07/19 10:34:55;;;;;;;;;8.50;6.00;;;;;24.37;39.29;100324.91;110351;1251;19987;-73
2023/07/19 10:37:21;;;;;;;;;5.00;5.00;;;;;24.36;39.60;100324.41;110359;1263;19397;-72
2023/07/19 10:39:48;;;;;;;;;5.00;5.00;;;;;24.36;39.62;100320.20;110338;1263;18306;-73
2023/07/19 10:42:14;;;;;;;;;5.50;5.00;;;;;24.39;40.01;100320.34;110328;1257;23021;-73
2023/07/19 10:44:40;;;;;;;;;8.00;6.00;;;;;24.43;40.24;100319.57;110366;1251;20408;-73
2023/07/19 10:47:06;;;;;;;;;8.00;6.00;;;;;24.46;40.32;100320.36;110321;1263;19568;-73
2023/07/19 10:49:32;;;;;;;;;5.33;5.33;;;;;24.46;40.35;100313.63;110336;1250;19794;-73
2023/07/19 10:51:58;;;;;;;;;9.00;8.00;;;;;24.53;39.90;100315.59;110289;1264;19495;-72
2023/07/19 10:54:28;;;;;;;;;10.00;10.00;;;;;24.52;39.89;100311.18;110176;1264;19259;-72
2023/07/19 10:59:10;;;;;;;;;7.00;7.00;;;;;-146.18;33.68;74972.96;107048;1302;17289;-37
2023/07/19 11:01:38;;;;;;;;;8.00;7.00;;;;;-146.18;34.36;75080.87;108766;1263;18778;-37
2023/07/19 11:04:07;;;;;;;;;7.00;7.00;;;;;-146.18;34.55;75098.31;108651;1270;19890;-37
2023/07/19 11:06:35;;;;;;;;;9.00;9.00;;;;;-146.18;34.58;75104.80;108561;1278;17937;-37